Time;durP1;ratioP1;P1;durP2;ratioP2;P2;SDS_P1;SDS_P2;PMS_P1;PMS_P2;Temp;Humidity;BMP_temperature;BMP_pressure;BME280_temperature;BME280_humidity;BME280_pressure;Samples;Min_cycle;Max_cycle;Signal;HPM_P1;HPM_P2
2022/04/20 00:01:09;;;;;;;5.15;3.05;;;;;;;;;;5095934;28;20197;-73
2022/04/20 00:03:38;;;;;;;3.15;2.67;;;;;;;;;;5095559;28;20284;-73
2022/04/20 00:06:05;;;;;;;6.45;3.38;;;;;;;;;;5095835;28;20194;-74
2022/04/20 00:08:33;;;;;;;5.35;3.60;;;;;;;;;;5095492;28;20196;-73
2022/04/20 00:11:02;;;;;;;8.27;3.22;;;;;;;;;;5096027;28;20219;-73
2022/04/20 00:13:29;;;;;;;5.30;3.03;;;;;;;;;;5095445;28;20233;-73
2022/04/20 00:15:56;;;;;;;4.45;3.53;;;;;;;;;;5095174;28;20656;-73
2022/04/20 00:18:23;;;;;;;3.35;2.70;;;;;;;;;;5095598;28;20290;-73
2022/04/20 00:20:51;;;;;;;3.47;3.17;;;;;;;;;;5095248;28;20239;-73
2022/04/20 00:23:18;;;;;;;2.80;2.60;;;;;;;;;;5095053;28;20196;-73
2022/04/20 00:25:45;;;;;;;3.78;2.83;;;;;;;;;;5095162;28;20288;-73
2022/04/20 00:28:14;;;;;;;5.45;3.22;;;;;;;;;;5094854;28;20211;-73
2022/04/20 00:30:41;;;;;;;2.78;2.58;;;;;;;;;;5095073;28;20284;-73
2022/04/20 00:33:08;;;;;;;3.10;2.90;;;;;;;;;;5094897;28;20362;-73
2022/04/20 00:35:36;;;;;;;3.50;2.90;;;;;;;;;;5094873;28;20201;-73
2022/04/20 00:38:03;;;;;;;6.95;3.15;;;;;;;;;;5094551;28;20227;-73
2022/04/20 00:40:30;;;;;;;2.78;2.53;;;;;;;;;;5094819;28;20196;-73
2022/04/20 00:42:57;;;;;;;4.65;2.95;;;;;;;;;;5094905;28;20203;-73
2022/04/20 00:45:26;;;;;;;2.85;2.65;;;;;;;;;;5094787;28;20234;-73
2022/04/20 00:47:55;;;;;;;3.95;2.95;;;;;;;;;;5095066;28;20192;-73
2022/04/20 00:50:23;;;;;;;5.45;3.33;;;;;;;;;;5094645;28;20206;-73
2022/04/20 00:52:50;;;;;;;5.40;3.22;;;;;;;;;;5094688;28;20191;-73
2022/04/20 00:55:17;;;;;;;3.35;2.90;;;;;;;;;;5094580;28;20286;-73
2022/04/20 00:57:45;;;;;;;3.38;2.90;;;;;;;;;;5094595;28;20678;-73
2022/04/20 01:00:12;;;;;;;4.40;3.05;;;;;;;;;;5094171;28;20677;-73
2022/04/20 01:02:41;;;;;;;3.10;2.90;;;;;;;;;;5094165;28;20717;-73
2022/04/20 01:05:08;;;;;;;4.20;3.58;;;;;;;;;;5094558;28;20197;-73
2022/04/20 01:07:37;;;;;;;3.67;2.78;;;;;;;;;;5094619;28;20199;-73
2022/04/20 01:10:04;;;;;;;3.60;3.30;;;;;;;;;;5094023;28;20724;-73
2022/04/20 01:12:32;;;;;;;3.17;2.88;;;;;;;;;;5094057;28;20196;-73
2022/04/20 01:14:59;;;;;;;3.50;2.45;;;;;;;;;;5094235;28;20194;-73
2022/04/20 01:17:26;;;;;;;7.93;3.45;;;;;;;;;;5094713;28;20247;-74
2022/04/20 01:19:54;;;;;;;3.75;2.58;;;;;;;;;;5093852;28;20689;-73
2022/04/20 01:22:23;;;;;;;3.60;3.30;;;;;;;;;;5095063;28;20191;-74
2022/04/20 01:24:51;;;;;;;3.22;2.92;;;;;;;;;;5094699;28;20224;-73
2022/04/20 01:27:18;;;;;;;3.30;2.97;;;;;;;;;;5093840;28;20212;-73
2022/04/20 01:29:46;;;;;;;4.05;3.10;;;;;;;;;;5094063;28;20230;-74
2022/04/20 01:32:13;;;;;;;3.38;3.08;;;;;;;;;;5094391;28;20552;-74
2022/04/20 01:34:40;;;;;;;3.67;3.30;;;;;;;;;;5093653;28;20192;-74
2022/04/20 01:37:07;;;;;;;3.70;3.30;;;;;;;;;;5093629;28;20221;-73
2022/04/20 01:39:36;;;;;;;4.28;3.97;;;;;;;;;;5093904;28;20668;-74
2022/04/20 01:42:03;;;;;;;4.80;3.60;;;;;;;;;;5094421;28;20192;-74
2022/04/20 01:44:30;;;;;;;3.65;3.03;;;;;;;;;;5094382;28;20300;-73
2022/04/20 01:46:58;;;;;;;4.20;2.83;;;;;;;;;;5094048;28;20227;-73
2022/04/20 01:49:25;;;;;;;2.92;2.70;;;;;;;;;;5093724;28;20199;-73
2022/04/20 01:51:52;;;;;;;3.80;3.40;;;;;;;;;;5093734;28;20236;-73
2022/04/20 01:54:20;;;;;;;3.20;2.90;;;;;;;;;;5093842;28;20637;-74
2022/04/20 01:56:49;;;;;;;3.40;3.10;;;;;;;;;;5093344;28;20260;-74
2022/04/20 01:59:17;;;;;;;4.13;3.47;;;;;;;;;;5093773;28;20217;-74
2022/04/20 02:04:29;;;;;;;3.50;3.20;;;;;;;;;;5093596;28;20672;-74
2022/04/20 02:06:57;;;;;;;3.63;3.25;;;;;;;;;;5093227;28;20236;-73
2022/04/20 02:09:25;;;;;;;3.35;3.10;;;;;;;;;;5093634;28;20228;-73
2022/04/20 02:11:54;;;;;;;3.70;3.40;;;;;;;;;;5093260;28;20197;-74
2022/04/20 02:14:21;;;;;;;8.85;3.45;;;;;;;;;;5093247;28;20300;-74
2022/04/20 02:16:49;;;;;;;3.70;3.40;;;;;;;;;;5093519;28;20230;-73
2022/04/20 02:19:16;;;;;;;4.50;3.53;;;;;;;;;;5093572;28;20200;-73
2022/04/20 02:21:43;;;;;;;3.70;3.03;;;;;;;;;;5093117;28;20195;-73
2022/04/20 02:24:11;;;;;;;4.70;3.72;;;;;;;;;;5093508;28;20197;-73
2022/04/20 02:26:38;;;;;;;3.50;3.20;;;;;;;;;;5093574;28;20230;-73
2022/04/20 02:29:06;;;;;;;3.60;2.90;;;;;;;;;;5093564;28;20283;-73
2022/04/20 02:31:34;;;;;;;4.78;3.30;;;;;;;;;;5093321;28;20536;-73
2022/04/20 02:34:01;;;;;;;3.63;3.33;;;;;;;;;;5093415;28;20194;-73
2022/04/20 02:36:28;;;;;;;3.67;3.33;;;;;;;;;;5093312;28;20204;-73
2022/04/20 02:38:55;;;;;;;3.38;3.05;;;;;;;;;;5093537;28;20216;-73
2022/04/20 02:41:23;;;;;;;3.35;3.05;;;;;;;;;;5092916;28;20210;-73
2022/04/20 02:43:50;;;;;;;4.72;3.55;;;;;;;;;;5093531;28;20192;-74
2022/04/20 02:46:18;;;;;;;3.53;3.10;;;;;;;;;;5094907;28;20232;-74
2022/04/20 02:48:46;;;;;;;3.33;3.03;;;;;;;;;;5096818;28;20205;-73
2022/04/20 02:51:13;;;;;;;4.22;2.88;;;;;;;;;;5096863;28;20205;-73
2022/04/20 02:53:40;;;;;;;3.67;3.05;;;;;;;;;;5096721;28;20194;-73
2022/04/20 02:56:07;;;;;;;3.42;3.08;;;;;;;;;;5097288;28;20196;-73
2022/04/20 02:58:35;;;;;;;4.93;3.95;;;;;;;;;;5096807;28;20224;-73
2022/04/20 03:01:03;;;;;;;3.63;3.17;;;;;;;;;;5097040;28;20195;-74
2022/04/20 03:03:32;;;;;;;3.03;2.83;;;;;;;;;;5096513;28;20200;-74
2022/04/20 03:05:59;;;;;;;5.07;3.28;;;;;;;;;;5096919;28;20210;-73
2022/04/20 03:08:26;;;;;;;3.55;3.25;;;;;;;;;;5096668;28;20562;-74
2022/04/20 03:10:53;;;;;;;5.30;3.28;;;;;;;;;;5097229;28;20562;-73
2022/04/20 03:13:21;;;;;;;3.90;3.60;;;;;;;;;;5096871;28;20198;-73
2022/04/20 03:15:48;;;;;;;4.35;3.58;;;;;;;;;;5096400;28;20197;-73
2022/04/20 03:18:15;;;;;;;6.97;3.65;;;;;;;;;;5096409;28;20229;-74
2022/04/20 03:20:44;;;;;;;3.53;3.25;;;;;;;;;;5096438;28;20300;-73
2022/04/20 03:23:12;;;;;;;4.97;3.42;;;;;;;;;;5096014;28;20204;-74
2022/04/20 03:25:41;;;;;;;3.58;3.30;;;;;;;;;;5096186;28;20275;-73
2022/04/20 03:28:08;;;;;;;6.53;3.25;;;;;;;;;;5096265;28;20203;-73
2022/04/20 03:30:38;;;;;;;4.15;3.00;;;;;;;;;;5096109;28;20660;-74
2022/04/20 03:33:08;;;;;;;5.03;3.42;;;;;;;;;;5096027;28;20651;-74
2022/04/20 03:35:36;;;;;;;4.68;3.38;;;;;;;;;;5096428;28;20181;-74
2022/04/20 03:38:04;;;;;;;4.22;3.00;;;;;;;;;;5095732;28;20222;-74
2022/04/20 03:40:32;;;;;;;3.45;3.15;;;;;;;;;;5096481;28;20261;-74
2022/04/20 03:42:59;;;;;;;3.58;3.25;;;;;;;;;;5096188;28;20673;-74
2022/04/20 03:45:26;;;;;;;3.45;3.15;;;;;;;;;;5095943;28;20281;-74
2022/04/20 03:47:53;;;;;;;3.60;3.05;;;;;;;;;;5095974;28;20187;-74
2022/04/20 03:50:21;;;;;;;5.60;3.03;;;;;;;;;;5096097;28;20253;-74
2022/04/20 03:52:48;;;;;;;4.13;3.05;;;;;;;;;;5095864;28;20190;-74
2022/04/20 03:55:16;;;;;;;9.48;3.15;;;;;;;;;;5095600;28;20286;-73
2022/04/20 03:57:43;;;;;;;8.65;3.70;;;;;;;;;;5095218;28;20216;-72
2022/04/20 04:00:12;;;;;;;3.60;3.33;;;;;;;;;;5094025;28;20198;-72
2022/04/20 04:02:39;;;;;;;3.42;3.08;;;;;;;;;;5095113;28;20236;-72
2022/04/20 04:05:07;;;;;;;5.18;3.35;;;;;;;;;;5095083;28;20644;-71
2022/04/20 04:07:37;;;;;;;3.53;3.28;;;;;;;;;;5095005;28;20203;-72
2022/04/20 04:10:04;;;;;;;3.50;3.20;;;;;;;;;;5094795;28;20671;-72
2022/04/20 04:12:33;;;;;;;3.70;2.95;;;;;;;;;;5095013;28;20197;-72
2022/04/20 04:15:00;;;;;;;3.25;2.85;;;;;;;;;;5094840;28;20201;-72
2022/04/20 04:17:27;;;;;;;4.13;3.72;;;;;;;;;;5095134;28;20281;-72
2022/04/20 04:19:55;;;;;;;5.43;3.60;;;;;;;;;;5095600;28;20292;-71
2022/04/20 04:22:22;;;;;;;4.25;3.70;;;;;;;;;;5094879;28;20719;-72
2022/04/20 04:24:49;;;;;;;6.45;3.35;;;;;;;;;;5095029;28;20246;-71
2022/04/20 04:27:22;;;;;;;5.78;3.30;;;;;;;;;;5094872;28;20650;-72
2022/04/20 04:29:51;;;;;;;3.60;3.30;;;;;;;;;;5094838;28;20651;-71
2022/04/20 04:32:18;;;;;;;6.30;4.10;;;;;;;;;;5095862;28;20201;-72
2022/04/20 04:34:45;;;;;;;10.02;6.55;;;;;;;;;;5094961;28;20650;-72
2022/04/20 04:37:14;;;;;;;7.75;5.20;;;;;;;;;;5094689;28;20559;-72
2022/04/20 04:39:41;;;;;;;8.18;5.95;;;;;;;;;;5094602;28;20668;-72
2022/04/20 04:42:09;;;;;;;11.13;4.25;;;;;;;;;;5094513;28;20204;-72
2022/04/20 04:44:37;;;;;;;4.38;3.65;;;;;;;;;;5094943;28;20304;-72
2022/04/20 04:49:50;;;;;;;4.95;4.20;;;;;;;;;;5094657;28;20306;-72
2022/04/20 04:52:17;;;;;;;6.38;4.22;;;;;;;;;;5094270;28;20291;-72
2022/04/20 04:54:45;;;;;;;4.40;4.00;;;;;;;;;;5094609;28;20234;-72
2022/04/20 04:57:13;;;;;;;4.72;3.95;;;;;;;;;;5093975;28;20200;-72
2022/04/20 04:59:40;;;;;;;5.90;4.00;;;;;;;;;;5094133;28;20215;-72
2022/04/20 05:02:09;;;;;;;4.88;3.33;;;;;;;;;;5094222;28;20236;-73
2022/04/20 05:04:37;;;;;;;4.43;3.40;;;;;;;;;;5095113;28;20194;-72
2022/04/20 05:07:04;;;;;;;5.05;3.75;;;;;;;;;;5094279;28;20286;-72
2022/04/20 05:09:32;;;;;;;4.30;3.90;;;;;;;;;;5093302;28;20285;-72
2022/04/20 05:12:01;;;;;;;4.30;3.25;;;;;;;;;;5094145;28;20206;-72
2022/04/20 05:14:28;;;;;;;6.55;3.40;;;;;;;;;;5094251;28;20239;-74
2022/04/20 05:16:58;;;;;;;7.53;3.55;;;;;;;;;;5094335;28;20195;-73
2022/04/20 05:19:29;;;;;;;5.38;4.40;;;;;;;;;;5093885;28;20214;-71
2022/04/20 05:21:57;;;;;;;4.22;3.30;;;;;;;;;;5094521;28;20184;-68
2022/04/20 05:24:24;;;;;;;4.10;3.75;;;;;;;;;;5094190;28;20223;-74
2022/04/20 05:26:52;;;;;;;4.88;3.88;;;;;;;;;;5093827;28;20196;-73
2022/04/20 05:29:19;;;;;;;4.80;3.45;;;;;;;;;;5094152;28;20199;-74
2022/04/20 05:31:47;;;;;;;3.13;2.92;;;;;;;;;;5094373;28;20557;-73
2022/04/20 05:34:14;;;;;;;3.38;2.97;;;;;;;;;;5093840;28;20205;-73
2022/04/20 05:42:19;;;;;;;4.03;3.10;;;;;;;;;;5093907;28;20555;-75
2022/04/20 05:44:47;;;;;;;6.00;3.50;;;;;;;;;;5093483;28;20200;-73
2022/04/20 05:47:14;;;;;;;5.15;3.70;;;;;;;;;;5094286;28;20288;-75
2022/04/20 05:49:42;;;;;;;3.40;3.10;;;;;;;;;;5093876;28;20206;-74
2022/04/20 05:52:11;;;;;;;4.72;3.55;;;;;;;;;;5093742;28;20233;-74
2022/04/20 05:54:38;;;;;;;3.45;3.15;;;;;;;;;;5093904;28;20204;-73
2022/04/20 05:57:06;;;;;;;6.32;3.50;;;;;;;;;;5093679;28;20200;-75
2022/04/20 05:59:33;;;;;;;5.03;3.38;;;;;;;;;;5093623;28;20223;-74
2022/04/20 06:02:05;;;;;;;8.18;3.75;;;;;;;;;;5093448;28;20280;-74
2022/04/20 06:04:32;;;;;;;6.60;3.83;;;;;;;;;;5093792;28;20192;-74
2022/04/20 06:06:59;;;;;;;3.72;3.42;;;;;;;;;;5093621;28;20196;-74
2022/04/20 06:09:28;;;;;;;3.88;3.30;;;;;;;;;;5093578;28;20199;-74
2022/04/20 06:11:55;;;;;;;7.15;3.72;;;;;;;;;;5093531;28;20520;-74
2022/04/20 06:14:23;;;;;;;5.78;3.40;;;;;;;;;;5093499;28;20234;-74
2022/04/20 06:16:50;;;;;;;6.90;3.90;;;;;;;;;;5093752;28;20258;-74
2022/04/20 06:19:17;;;;;;;5.47;3.30;;;;;;;;;;5093760;28;20216;-74
2022/04/20 06:21:44;;;;;;;3.90;3.10;;;;;;;;;;5097760;28;20194;-74
2022/04/20 06:24:13;;;;;;;3.47;3.17;;;;;;;;;;5098014;28;20198;-73
2022/04/20 06:26:41;;;;;;;6.70;4.72;;;;;;;;;;5097747;28;20207;-74
2022/04/20 06:29:09;;;;;;;4.07;3.58;;;;;;;;;;5097049;28;20199;-74
2022/04/20 06:31:38;;;;;;;7.05;3.50;;;;;;;;;;5097506;28;20283;-73
2022/04/20 06:34:05;;;;;;;8.68;3.50;;;;;;;;;;5097047;28;20203;-73
2022/04/20 06:36:32;;;;;;;5.60;3.30;;;;;;;;;;5097109;28;20195;-73
2022/04/20 06:39:00;;;;;;;4.10;3.25;;;;;;;;;;5097231;28;20242;-74
2022/04/20 06:41:27;;;;;;;4.13;3.65;;;;;;;;;;5096963;28;20196;-74
2022/04/20 06:43:57;;;;;;;5.28;4.00;;;;;;;;;;5097141;28;20203;-74
2022/04/20 06:46:24;;;;;;;8.48;3.42;;;;;;;;;;5097217;28;20228;-75
2022/04/20 06:48:51;;;;;;;6.40;3.33;;;;;;;;;;5097102;28;20288;-75
2022/04/20 06:51:19;;;;;;;4.32;3.92;;;;;;;;;;5097121;28;20223;-75
2022/04/20 06:59:17;;;;;;;4.45;3.55;;;;;;;;;;5096665;28;20281;-74
2022/04/20 07:01:44;;;;;;;5.13;3.40;;;;;;;;;;5096619;28;20201;-74
2022/04/20 07:04:11;;;;;;;16.77;3.60;;;;;;;;;;5096475;28;20209;-74
2022/04/20 07:06:38;;;;;;;5.07;3.83;;;;;;;;;;5096542;28;20189;-74
2022/04/20 07:09:06;;;;;;;4.43;3.92;;;;;;;;;;5097193;28;20647;-74
2022/04/20 07:11:33;;;;;;;4.25;3.33;;;;;;;;;;5096678;28;20199;-75
2022/04/20 07:14:00;;;;;;;4.85;3.78;;;;;;;;;;5096655;28;20196;-73
2022/04/20 07:16:29;;;;;;;4.18;3.40;;;;;;;;;;5096658;28;20278;-75
2022/04/20 07:18:58;;;;;;;3.88;3.58;;;;;;;;;;5096346;28;20744;-74
2022/04/20 07:21:25;;;;;;;4.55;3.35;;;;;;;;;;5096219;28;20199;-74
2022/04/20 07:23:52;;;;;;;3.58;3.28;;;;;;;;;;5096435;28;20649;-74
2022/04/20 07:26:20;;;;;;;4.00;3.60;;;;;;;;;;5096325;28;20192;-74
2022/04/20 07:28:47;;;;;;;7.30;4.25;;;;;;;;;;5095957;28;20261;-74
2022/04/20 07:31:14;;;;;;;4.25;3.30;;;;;;;;;;5095328;28;20558;-74
2022/04/20 07:33:43;;;;;;;3.72;3.40;;;;;;;;;;5096131;28;20650;-75
2022/04/20 07:36:10;;;;;;;5.60;3.92;;;;;;;;;;5096230;28;20198;-74
2022/04/20 07:38:38;;;;;;;4.10;3.80;;;;;;;;;;5096017;28;20220;-74
2022/04/20 07:41:05;;;;;;;3.92;3.33;;;;;;;;;;5096030;28;20566;-74
2022/04/20 07:43:32;;;;;;;3.80;3.50;;;;;;;;;;5096299;28;20196;-75
2022/04/20 07:46:00;;;;;;;8.43;3.70;;;;;;;;;;5095799;28;20478;-74
2022/04/20 07:48:27;;;;;;;7.22;3.50;;;;;;;;;;5095709;28;20440;-74
2022/04/20 07:50:55;;;;;;;6.75;3.53;;;;;;;;;;5095528;28;20284;-74
2022/04/20 07:53:23;;;;;;;3.75;3.45;;;;;;;;;;5096040;28;20193;-74
2022/04/20 07:55:50;;;;;;;4.38;3.97;;;;;;;;;;5095592;28;20665;-74
2022/04/20 07:58:18;;;;;;;6.18;3.78;;;;;;;;;;5095807;28;20200;-75
2022/04/20 08:00:46;;;;;;;17.67;11.30;;;;;;;;;;5095732;28;20199;-75
2022/04/20 08:03:14;;;;;;;6.87;4.83;;;;;;;;;;5095950;28;20844;-74
2022/04/20 08:05:42;;;;;;;5.67;4.57;;;;;;;;;;5095685;28;20435;-74
2022/04/20 08:08:11;;;;;;;3.55;3.25;;;;;;;;;;5095815;28;20463;-74
2022/04/20 08:10:38;;;;;;;5.95;4.00;;;;;;;;;;5095527;28;20530;-74
2022/04/20 08:15:47;;;;;;;5.40;3.80;;;;;;;;;;5095919;27;20197;-74
2022/04/20 08:18:14;;;;;;;4.73;3.70;;;;;;;;;;5095320;28;20435;-74
2022/04/20 08:20:41;;;;;;;3.40;3.10;;;;;;;;;;5095055;28;20478;-74
2022/04/20 08:23:10;;;;;;;6.03;4.10;;;;;;;;;;5095203;28;20285;-76
2022/04/20 08:25:39;;;;;;;4.47;3.70;;;;;;;;;;5095648;28;20531;-74
2022/04/20 08:28:06;;;;;;;5.67;4.20;;;;;;;;;;5095238;28;20542;-74
2022/04/20 08:30:33;;;;;;;10.30;8.70;;;;;;;;;;5095159;28;20439;-75
2022/04/20 08:33:01;;;;;;;5.30;4.80;;;;;;;;;;5095175;28;20449;-74
2022/04/20 08:35:28;;;;;;;3.70;3.40;;;;;;;;;;5095326;28;20837;-74
2022/04/20 08:37:55;;;;;;;3.90;3.60;;;;;;;;;;5094835;28;20444;-74
2022/04/20 08:40:24;;;;;;;5.17;4.10;;;;;;;;;;5095003;28;20814;-73
2022/04/20 08:42:51;;;;;;;4.73;4.13;;;;;;;;;;5094815;28;20458;-74
2022/04/20 08:45:19;;;;;;;6.50;4.00;;;;;;;;;;5094057;28;20443;-73
2022/04/20 08:47:46;;;;;;;4.77;3.73;;;;;;;;;;5095224;28;20540;-73
2022/04/20 08:50:13;;;;;;;5.30;3.87;;;;;;;;;;5095049;28;20465;-74
2022/04/20 08:52:42;;;;;;;6.27;4.03;;;;;;;;;;5094455;28;20458;-74
2022/04/20 08:55:10;;;;;;;7.97;3.70;;;;;;;;;;5094566;28;20443;-73
2022/04/20 08:57:39;;;;;;;7.07;5.40;;;;;;;;;;5094794;28;20446;-74
2022/04/20 09:00:08;;;;;;;9.20;3.30;;;;;;;;;;5094425;28;20476;-74
2022/04/20 09:02:35;;;;;;;6.33;4.03;;;;;;;;;;5094689;28;20799;-74
2022/04/20 09:05:04;;;;;;;5.63;3.80;;;;;;;;;;5094163;28;20431;-74
2022/04/20 09:07:32;;;;;;;4.03;3.70;;;;;;;;;;5094141;28;21056;-74
2022/04/20 09:10:00;;;;;;;11.83;4.30;;;;;;;;;;5094427;28;20452;-74
2022/04/20 09:12:28;;;;;;;5.20;4.07;;;;;;;;;;5094276;28;20480;-74
2022/04/20 09:14:59;;;;;;;3.73;3.43;;;;;;;;;;5094360;28;20831;-73
2022/04/20 09:17:26;;;;;;;5.70;4.00;;;;;;;;;;5094466;28;20448;-73
2022/04/20 09:19:54;;;;;;;6.30;3.80;;;;;;;;;;5094594;28;20578;-73
2022/04/20 09:22:22;;;;;;;5.50;3.33;;;;;;;;;;5094287;28;20526;-74
2022/04/20 09:25:00;;;;;;;5.20;3.60;;;;;;;;;;5094193;28;20439;-74
2022/04/20 09:27:27;;;;;;;5.20;3.67;;;;;;;;;;5094135;28;20431;-73
2022/04/20 09:29:56;;;;;;;5.50;3.57;;;;;;;;;;5094250;28;20806;-73
2022/04/20 09:32:37;;;;;;;5.03;3.40;;;;;;;;;;5094007;28;20463;-73
2022/04/20 09:35:06;;;;;;;5.13;3.30;;;;;;;;;;5094056;28;20431;-73
2022/04/20 09:37:33;;;;;;;5.67;3.87;;;;;;;;;;5093679;28;20447;-74
2022/04/20 09:40:04;;;;;;;4.33;3.93;;;;;;;;;;5093935;28;20558;-73
2022/04/20 09:42:32;;;;;;;6.70;3.83;;;;;;;;;;5093547;28;20432;-74
2022/04/20 09:45:01;;;;;;;3.90;3.60;;;;;;;;;;5093608;28;21004;-74
2022/04/20 09:50:16;;;;;;;5.37;3.97;;;;;;;;;;5094112;28;20410;-73
2022/04/20 09:52:45;;;;;;;4.17;3.77;;;;;;;;;;5093700;28;20429;-74
2022/04/20 09:55:13;;;;;;;4.80;4.10;;;;;;;;;;5094018;28;20788;-74
2022/04/20 09:57:40;;;;;;;3.87;3.53;;;;;;;;;;5093876;28;20526;-74
2022/04/20 10:00:10;;;;;;;4.57;3.60;;;;;;;;;;5093777;28;20806;-74
2022/04/20 10:02:38;;;;;;;5.27;3.27;;;;;;;;;;5093613;28;20443;-74
2022/04/20 10:05:06;;;;;;;6.70;3.93;;;;;;;;;;5093331;28;20436;-73
2022/04/20 10:07:35;;;;;;;4.57;3.47;;;;;;;;;;5093240;28;20443;-73
2022/04/20 10:10:04;;;;;;;3.77;3.40;;;;;;;;;;5093209;28;20437;-74
2022/04/20 10:12:32;;;;;;;4.73;3.30;;;;;;;;;;5093557;28;20538;-73
2022/04/20 10:17:49;;;;;;;4.60;3.70;;;;;;;;;;5093332;28;20896;-73
2022/04/20 10:20:16;;;;;;;5.30;3.50;;;;;;;;;;5093778;28;20463;-74
2022/04/20 10:22:44;;;;;;;4.73;4.23;;;;;;;;;;5093595;28;20515;-74
2022/04/20 10:25:12;;;;;;;5.80;3.97;;;;;;;;;;5093359;28;20447;-74
2022/04/20 10:27:46;;;;;;;10.50;9.13;;;;;;;;;;5093280;28;20450;-74
2022/04/20 10:30:17;;;;;;;5.23;4.30;;;;;;;;;;5093188;28;20909;-73
2022/04/20 10:32:51;;;;;;;4.77;4.37;;;;;;;;;;5093582;28;20432;-74
2022/04/20 10:35:19;;;;;;;6.53;4.27;;;;;;;;;;5093114;28;20422;-73
2022/04/20 10:38:01;;;;;;;6.97;4.50;;;;;;;;;;5093247;28;20442;-73
2022/04/20 10:40:28;;;;;;;5.10;4.30;;;;;;;;;;5093127;28;21050;-74
2022/04/20 10:43:10;;;;;;;6.53;4.70;;;;;;;;;;5093362;28;20438;-74
2022/04/20 10:45:38;;;;;;;6.23;5.00;;;;;;;;;;5092852;28;20499;-73
2022/04/20 10:48:10;;;;;;;5.70;3.73;;;;;;;;;;5093303;28;20434;-74
2022/04/20 10:50:38;;;;;;;5.20;4.80;;;;;;;;;;5093293;28;20438;-74
2022/04/20 10:53:08;;;;;;;5.50;4.57;;;;;;;;;;5093194;28;20448;-73
2022/04/20 10:55:50;;;;;;;4.63;4.20;;;;;;;;;;5093300;28;20539;-74
2022/04/20 10:58:18;;;;;;;4.57;4.17;;;;;;;;;;5093350;28;20439;-74
2022/04/20 11:00:46;;;;;;;4.40;4.00;;;;;;;;;;5093454;28;20471;-74
2022/04/20 11:03:13;;;;;;;6.67;3.80;;;;;;;;;;5093128;28;20466;-74
2022/04/20 11:05:58;;;;;;;7.30;3.70;;;;;;;;;;5093119;28;20449;-74
2022/04/20 11:08:26;;;;;;;4.20;3.80;;;;;;;;;;5096409;28;20424;-74
2022/04/20 11:19:49;;;;;;;5.13;3.40;;;;;;;;;;5073992;28;20506;-74
2022/04/20 11:22:17;;;;;;;9.30;5.00;;;;;;;;;;5088941;28;20447;-73
2022/04/20 11:24:45;;;;;;;6.40;4.37;;;;;;;;;;5096165;28;20447;-74
2022/04/20 11:27:13;;;;;;;6.00;3.50;;;;;;;;;;5096487;28;20441;-73
2022/04/20 11:29:43;;;;;;;5.90;3.40;;;;;;;;;;5096833;28;20523;-74
2022/04/20 11:32:11;;;;;;;6.40;5.73;;;;;;;;;;5096494;28;20436;-74
2022/04/20 11:34:41;;;;;;;5.03;4.30;;;;;;;;;;5096051;28;20436;-74
2022/04/20 11:37:09;;;;;;;7.80;4.60;;;;;;;;;;5095932;28;20929;-74
2022/04/20 11:39:37;;;;;;;5.43;4.10;;;;;;;;;;5095748;28;20472;-74
2022/04/20 11:42:06;;;;;;;5.33;3.87;;;;;;;;;;5095829;28;20447;-74
2022/04/20 11:44:39;;;;;;;4.97;3.77;;;;;;;;;;5095750;28;20440;-74
2022/04/20 11:47:07;;;;;;;9.33;3.17;;;;;;;;;;5096473;28;20823;-74
2022/04/20 11:49:36;;;;;;;6.37;3.90;;;;;;;;;;5095922;28;20831;-74
2022/04/20 11:52:06;;;;;;;3.90;3.40;;;;;;;;;;5095969;28;20443;-74
2022/04/20 11:54:34;;;;;;;3.47;3.17;;;;;;;;;;5095877;28;20481;-74
2022/04/20 11:57:02;;;;;;;5.23;3.80;;;;;;;;;;5096174;28;20440;-74
2022/04/20 11:59:30;;;;;;;5.80;4.00;;;;;;;;;;5095500;28;20438;-74
2022/04/20 12:01:58;;;;;;;3.67;3.37;;;;;;;;;;5095388;28;20442;-74
2022/04/20 12:04:26;;;;;;;3.80;3.50;;;;;;;;;;5095701;28;20441;-73
2022/04/20 12:06:55;;;;;;;3.20;3.00;;;;;;;;;;5095564;28;20442;-74
2022/04/20 12:09:24;;;;;;;5.17;2.97;;;;;;;;;;5095094;28;20523;-76
2022/04/20 12:11:52;;;;;;;3.23;2.93;;;;;;;;;;5095492;28;20512;-72
2022/04/20 12:14:19;;;;;;;4.50;3.13;;;;;;;;;;5095629;28;20439;-75
2022/04/20 12:16:48;;;;;;;5.77;3.70;;;;;;;;;;5095894;28;21022;-76
2022/04/20 12:19:15;;;;;;;6.53;3.10;;;;;;;;;;5094964;28;20440;-75
2022/04/20 12:21:44;;;;;;;10.00;3.20;;;;;;;;;;5094504;28;20579;-77
2022/04/20 12:24:12;;;;;;;4.60;3.50;;;;;;;;;;5094471;28;20490;-76
2022/04/20 12:26:44;;;;;;;4.27;3.50;;;;;;;;;;5094456;28;20962;-76
2022/04/20 12:29:13;;;;;;;3.90;3.53;;;;;;;;;;5094567;28;20517;-76
2022/04/20 12:31:43;;;;;;;4.03;3.70;;;;;;;;;;5094426;28;20487;-76
2022/04/20 12:34:12;;;;;;;3.80;3.33;;;;;;;;;;5094636;28;20445;-77
2022/04/20 12:36:53;;;;;;;4.03;3.63;;;;;;;;;;5094854;28;20913;-76
2022/04/20 12:39:24;;;;;;;4.20;2.67;;;;;;;;;;5094739;28;20440;-77
2022/04/20 12:41:54;;;;;;;7.00;4.03;;;;;;;;;;5094948;28;20477;-77
2022/04/20 12:44:37;;;;;;;7.17;3.13;;;;;;;;;;5095347;28;20444;-77
2022/04/20 12:47:20;;;;;;;4.03;3.23;;;;;;;;;;5094964;28;20809;-78
2022/04/20 12:49:51;;;;;;;3.73;2.83;;;;;;;;;;5094345;28;20441;-77
2022/04/20 12:52:19;;;;;;;4.00;3.63;;;;;;;;;;5094524;28;20443;-77
2022/04/20 12:54:54;;;;;;;4.73;3.07;;;;;;;;;;5094436;28;20965;-77
2022/04/20 13:03:01;;;;;;;3.10;2.87;;;;;;;;;;5094343;28;20451;-77
2022/04/20 13:05:30;;;;;;;3.70;3.40;;;;;;;;;;5094701;28;20442;-77
2022/04/20 13:07:57;;;;;;;2.90;2.60;;;;;;;;;;5094393;28;20439;-77
2022/04/20 13:10:25;;;;;;;4.70;3.20;;;;;;;;;;5094164;28;20449;-77
2022/04/20 13:12:52;;;;;;;4.07;3.07;;;;;;;;;;5094237;28;20523;-77
2022/04/20 13:15:20;;;;;;;2.70;2.40;;;;;;;;;;5093784;28;20471;-76
2022/04/20 13:17:48;;;;;;;3.27;3.07;;;;;;;;;;5093580;28;20444;-76
2022/04/20 13:20:16;;;;;;;2.93;2.73;;;;;;;;;;5093487;28;20443;-72
2022/04/20 13:22:45;;;;;;;4.83;2.77;;;;;;;;;;5093721;28;20436;-73
2022/04/20 13:27:57;;;;;;;2.80;2.60;;;;;;;;;;5093834;28;20559;-72
2022/04/20 13:30:25;;;;;;;6.17;2.60;;;;;;;;;;5093089;28;20443;-72
2022/04/20 13:32:52;;;;;;;2.80;2.50;;;;;;;;;;5094068;28;20523;-72
2022/04/20 13:35:20;;;;;;;3.03;2.70;;;;;;;;;;5093646;28;20519;-72
2022/04/20 13:37:49;;;;;;;8.10;4.17;;;;;;;;;;5093468;28;20452;-73
2022/04/20 13:40:16;;;;;;;2.67;2.47;;;;;;;;;;5093438;28;20925;-73
2022/04/20 13:42:43;;;;;;;8.97;3.20;;;;;;;;;;5093957;28;20444;-72
2022/04/20 13:45:11;;;;;;;2.80;2.60;;;;;;;;;;5093710;28;20554;-72
2022/04/20 13:47:38;;;;;;;5.17;2.10;;;;;;;;;;5093332;28;20446;-74
2022/04/20 13:50:06;;;;;;;2.37;2.17;;;;;;;;;;5092213;28;20456;-71
2022/04/20 13:52:36;;;;;;;2.40;2.20;;;;;;;;;;5093356;28;20435;-67
2022/04/20 13:55:04;;;;;;;2.50;2.30;;;;;;;;;;5093801;28;20444;-71
2022/04/20 13:57:32;;;;;;;3.40;2.30;;;;;;;;;;5093700;28;20543;-73
2022/04/20 14:00:00;;;;;;;2.47;2.20;;;;;;;;;;5092856;28;20439;-72
2022/04/20 14:02:27;;;;;;;2.63;2.37;;;;;;;;;;5093137;28;20984;-72
2022/04/20 14:04:55;;;;;;;3.57;2.77;;;;;;;;;;5093567;28;20443;-72
2022/04/20 14:07:23;;;;;;;3.30;3.10;;;;;;;;;;5093506;28;20446;-72
2022/04/20 14:09:50;;;;;;;8.97;3.77;;;;;;;;;;5093083;28;20453;-73
2022/04/20 14:12:19;;;;;;;3.20;2.90;;;;;;;;;;5093006;28;20454;-72
2022/04/20 14:14:46;;;;;;;2.43;2.23;;;;;;;;;;5093418;28;20472;-72
2022/04/20 14:17:15;;;;;;;2.70;2.50;;;;;;;;;;5093643;28;20452;-72
2022/04/20 14:19:44;;;;;;;2.60;2.40;;;;;;;;;;5092291;28;20826;-72
2022/04/20 14:22:13;;;;;;;3.10;2.80;;;;;;;;;;5093079;28;20480;-72
2022/04/20 14:24:40;;;;;;;2.73;2.50;;;;;;;;;;5093055;28;20452;-72
2022/04/20 14:32:39;;;;;;;3.13;2.70;;;;;;;;;;5093145;28;20399;-72
2022/04/20 14:35:09;;;;;;;4.50;2.73;;;;;;;;;;5093318;28;20455;-71
2022/04/20 14:37:37;;;;;;;3.33;2.77;;;;;;;;;;5092733;28;20436;-72
2022/04/20 14:40:05;;;;;;;2.90;2.60;;;;;;;;;;5092667;28;20530;-72
2022/04/20 14:42:32;;;;;;;3.93;2.93;;;;;;;;;;5096636;28;20470;-72
2022/04/20 14:45:01;;;;;;;4.57;3.97;;;;;;;;;;5096992;28;20443;-72
2022/04/20 14:47:28;;;;;;;7.00;5.37;;;;;;;;;;5097837;28;20471;-72
2022/04/20 14:49:55;;;;;;;5.50;3.70;;;;;;;;;;5096782;28;20452;-72
2022/04/20 14:52:23;;;;;;;5.60;3.73;;;;;;;;;;5096842;28;20441;-72
2022/04/20 14:54:50;;;;;;;5.47;4.13;;;;;;;;;;5096789;28;20433;-73
2022/04/20 14:57:17;;;;;;;4.87;3.90;;;;;;;;;;5096478;28;20456;-72
2022/04/20 14:59:44;;;;;;;4.30;4.00;;;;;;;;;;5096302;28;20507;-72
2022/04/20 15:02:17;;;;;;;4.60;4.20;;;;;;;;;;5096245;28;20568;-71
2022/04/20 15:04:44;;;;;;;9.10;7.43;;;;;;;;;;5096738;28;20528;-71
2022/04/20 15:07:12;;;;;;;8.30;5.07;;;;;;;;;;5096409;28;20449;-72
2022/04/20 15:09:39;;;;;;;5.93;4.90;;;;;;;;;;5096432;28;20544;-72
2022/04/20 15:12:09;;;;;;;5.37;4.53;;;;;;;;;;5096647;28;20461;-72
2022/04/20 15:14:37;;;;;;;6.70;4.77;;;;;;;;;;5096735;28;20532;-73
2022/04/20 15:17:04;;;;;;;4.30;3.80;;;;;;;;;;5096509;28;20461;-72
2022/04/20 15:19:33;;;;;;;9.40;5.80;;;;;;;;;;5095665;28;20442;-72
2022/04/20 15:22:00;;;;;;;7.33;6.00;;;;;;;;;;5095816;28;20484;-73
2022/04/20 15:24:27;;;;;;;5.63;4.67;;;;;;;;;;5096378;28;20445;-73
2022/04/20 15:26:55;;;;;;;5.73;4.70;;;;;;;;;;5096302;28;20445;-73
2022/04/20 15:29:27;;;;;;;5.10;4.63;;;;;;;;;;5096733;28;20448;-73
2022/04/20 15:31:56;;;;;;;10.00;5.10;;;;;;;;;;5096315;28;20438;-73
2022/04/20 15:34:24;;;;;;;9.13;5.40;;;;;;;;;;5096312;28;20436;-73
2022/04/20 15:36:52;;;;;;;4.57;4.17;;;;;;;;;;5096022;28;20454;-73